Time;durP1;ratioP1;P1;durP2;ratioP2;P2;SDS_P1;SDS_P2;PMS_P1;PMS_P2;Temp;Humidity;BMP_temperature;BMP_pressure;BME280_temperature;BME280_humidity;BME280_pressure;Samples;Min_cycle;Max_cycle;Signal;HPM_P1;HPM_P2
2023/05/18 00:01:41;;;;;;;4.10;2.73;;;5.20;99.90;;;;;;8399835;28;20214;-66
2023/05/18 00:05:42;;;;;;;5.87;2.80;;;5.20;99.90;;;;;;8396858;28;20216;-64
2023/05/18 00:09:45;;;;;;;3.03;2.10;;;5.20;99.90;;;;;;8395217;28;20192;-63
2023/05/18 00:13:46;;;;;;;4.57;2.33;;;5.20;1.00;;;;;;8397239;28;20215;-63
2023/05/18 00:17:52;;;;;;;5.37;2.43;;;5.20;4.60;;;;;;8396873;28;20189;-64
2023/05/18 00:21:54;;;;;;;6.00;2.70;;;5.20;99.90;;;;;;8392142;28;20276;-64
2023/05/18 00:26:00;;;;;;;5.90;2.60;;;5.20;99.90;;;;;;8380572;28;20260;-65
2023/05/18 00:30:01;;;;;;;3.47;2.87;;;5.30;99.90;;;;;;8396440;28;20181;-63
2023/05/18 00:34:05;;;;;;;6.27;2.37;;;5.30;99.90;;;;;;8395152;28;20350;-64
2023/05/18 00:38:07;;;;;;;3.80;2.87;;;5.20;99.90;;;;;;8402531;28;20177;-64
2023/05/18 00:42:11;;;;;;;3.93;2.47;;;5.20;99.90;;;;;;8400002;28;20186;-64
2023/05/18 00:46:15;;;;;;;4.43;2.47;;;5.20;99.90;;;;;;8386477;28;20196;-64
2023/05/18 00:50:16;;;;;;;3.53;2.30;;;5.10;99.90;;;;;;8391701;28;20196;-63
2023/05/18 00:54:18;;;;;;;4.63;2.60;;;5.10;1.00;;;;;;8399916;28;20207;-64
2023/05/18 00:58:19;;;;;;;5.80;2.97;;;5.10;1.00;;;;;;8402799;28;20184;-64
2023/05/18 01:02:22;;;;;;;3.90;2.90;;;5.10;99.90;;;;;;8402763;28;20302;-64
2023/05/18 01:06:26;;;;;;;5.90;3.10;;;5.10;99.90;;;;;;8400104;28;20211;-65
2023/05/18 01:10:32;;;;;;;5.97;3.03;;;5.10;99.90;;;;;;8401114;28;20188;-64
2023/05/18 01:14:51;;;;;;;4.63;2.57;;;5.10;99.90;;;;;;8404430;28;20288;-65
2023/05/18 01:19:08;;;;;;;5.43;2.80;;;5.10;1.00;;;;;;8389087;28;20232;-64
2023/05/18 01:23:14;;;;;;;4.83;2.77;;;5.10;1.00;;;;;;8406288;28;20260;-64
2023/05/18 01:27:18;;;;;;;4.87;2.63;;;5.10;1.00;;;;;;8400311;28;20238;-64
2023/05/18 01:31:19;;;;;;;7.83;3.33;;;5.10;1.00;;;;;;8402214;28;20235;-64
2023/05/18 01:35:20;;;;;;;5.17;3.10;;;5.00;5.80;;;;;;8399862;28;20276;-63
2023/05/18 01:39:21;;;;;;;4.53;3.03;;;5.00;90.30;;;;;;8402682;28;20276;-64
2023/05/18 01:43:29;;;;;;;5.20;3.27;;;5.00;21.20;;;;;;8397997;28;20195;-64
2023/05/18 01:47:33;;;;;;;4.17;3.17;;;5.00;30.10;;;;;;8397448;28;20267;-64
2023/05/18 01:51:40;;;;;;;4.90;3.10;;;5.00;99.90;;;;;;8404264;28;20248;-64
2023/05/18 01:55:43;;;;;;;8.40;3.07;;;5.00;99.90;;;;;;8399350;28;20176;-64
2023/05/18 01:59:45;;;;;;;4.83;2.87;;;4.90;99.90;;;;;;8395296;28;20180;-67
2023/05/18 02:03:46;;;;;;;3.60;2.60;;;4.90;99.90;;;;;;8397925;28;20209;-66
2023/05/18 02:07:47;;;;;;;3.90;2.53;;;4.90;99.90;;;;;;8398858;28;20252;-73
2023/05/18 02:11:48;;;;;;;5.57;3.27;;;4.80;99.90;;;;;;8398253;28;20212;-64
2023/05/18 02:15:50;;;;;;;5.27;3.10;;;4.80;1.00;;;;;;8397479;28;20184;-65
2023/05/18 02:19:55;;;;;;;4.67;3.00;;;4.70;1.00;;;;;;8401252;28;20192;-64
2023/05/18 02:23:57;;;;;;;4.00;2.80;;;4.70;99.90;;;;;;8397036;28;20184;-64
2023/05/18 02:27:59;;;;;;;5.50;2.93;;;4.60;99.90;;;;;;8398337;28;20189;-64
2023/05/18 02:32:00;;;;;;;3.60;2.60;;;4.40;1.00;;;;;;8402861;28;20307;-64
2023/05/18 02:36:02;;;;;;;4.20;2.63;;;4.30;99.90;;;;;;8405700;28;20187;-64
2023/05/18 02:40:04;;;;;;;5.73;2.90;;;4.10;99.90;;;;;;8384737;28;20189;-64
2023/05/18 02:44:07;;;;;;;5.63;3.03;;;3.90;1.00;;;;;;8395576;28;20185;-65
2023/05/18 02:48:08;;;;;;;6.60;3.10;;;3.80;99.90;;;;;;8383066;28;20187;-64
2023/05/18 02:52:10;;;;;;;5.27;3.00;;;3.60;1.00;;;;;;8399552;28;20309;-64
2023/05/18 02:56:11;;;;;;;3.90;2.60;;;3.50;1.00;;;;;;8401408;28;20265;-64
2023/05/18 03:00:18;;;;;;;5.43;2.90;;;3.40;99.90;;;;;;8400732;28;20190;-63
2023/05/18 03:04:20;;;;;;;5.13;3.07;;;3.20;99.90;;;;;;8397178;28;20208;-64
2023/05/18 03:08:27;;;;;;;2.53;2.20;;;3.10;99.90;;;;;;8402279;28;20190;-65
2023/05/18 03:12:28;;;;;;;6.30;3.47;;;3.00;1.00;;;;;;8394832;28;20217;-65
2023/05/18 03:16:29;;;;;;;3.93;2.53;;;2.90;1.00;;;;;;8396911;28;20285;-67
2023/05/18 03:20:30;;;;;;;5.33;2.97;;;2.90;99.90;;;;;;8396981;28;20198;-67
2023/05/18 03:24:39;;;;;;;7.27;2.90;;;2.90;42.20;;;;;;8405166;28;20215;-66
2023/05/18 03:28:40;;;;;;;6.00;2.80;;;3.00;1.00;;;;;;8394528;28;20192;-66
2023/05/18 03:32:41;;;;;;;6.57;3.00;;;3.10;99.90;;;;;;8407654;28;20218;-67
2023/05/18 03:36:46;;;;;;;4.17;2.57;;;3.20;1.00;;;;;;8402482;28;20275;-67
2023/05/18 03:40:47;;;;;;;3.90;2.30;;;3.30;1.00;;;;;;8397241;28;20226;-73
2023/05/18 03:44:48;;;;;;;4.97;3.00;;;3.50;1.00;;;;;;8401136;28;20189;-74
2023/05/18 03:48:52;;;;;;;5.30;3.27;;;3.70;1.00;;;;;;8409312;28;20197;-74
2023/05/18 03:52:54;;;;;;;5.93;3.40;;;3.80;1.00;;;;;;8406338;28;20208;-74
2023/05/18 03:56:58;;;;;;;4.47;3.13;;;4.00;99.90;;;;;;8407981;28;20212;-73
2023/05/18 04:01:00;;;;;;;4.97;2.90;;;4.20;99.90;;;;;;8408629;28;20276;-74
2023/05/18 04:05:01;;;;;;;7.50;4.20;;;4.30;99.90;;;;;;8398988;28;20208;-74
2023/05/18 04:09:02;;;;;;;5.77;3.20;;;4.50;99.90;;;;;;8397038;28;20207;-75
2023/05/18 04:13:09;;;;;;;6.90;3.93;;;5.10;1.00;;;;;;8396041;28;20219;-73
2023/05/18 04:17:20;;;;;;;8.07;3.53;;;6.60;99.90;;;;;;8394538;28;20191;-74
2023/05/18 04:21:22;;;;;;;7.50;3.50;;;7.90;99.90;;;;;;8404018;28;20188;-73
2023/05/18 04:25:31;;;;;;;4.27;2.60;;;9.00;99.90;;;;;;8401958;28;20280;-73
2023/05/18 04:29:33;;;;;;;4.33;2.60;;;9.10;99.90;;;;;;8424422;28;20208;-74
2023/05/18 04:33:37;;;;;;;4.73;2.97;;;8.50;99.90;;;;;;8415803;28;20267;-74
2023/05/18 04:37:41;;;;;;;4.83;2.67;;;8.50;99.90;;;;;;8404232;28;20188;-73
2023/05/18 04:41:42;;;;;;;4.97;2.57;;;8.90;99.90;;;;;;8408950;28;20184;-72
2023/05/18 04:45:49;;;;;;;5.67;2.57;;;9.50;99.90;;;;;;8406637;28;20492;-74
2023/05/18 04:49:54;;;;;;;6.80;2.77;;;9.60;93.70;;;;;;8408764;28;20197;-74
2023/05/18 04:53:55;;;;;;;5.67;2.47;;;9.10;90.50;;;;;;8412269;28;20205;-74
2023/05/18 04:57:57;;;;;;;4.63;2.40;;;8.50;99.90;;;;;;8408248;28;20183;-73
2023/05/18 05:02:01;;;;;;;5.90;3.13;;;8.20;99.90;;;;;;8411741;28;20189;-66
2023/05/18 05:06:02;;;;;;;7.33;3.00;;;8.00;99.90;;;;;;8394181;28;20208;-67
2023/05/18 05:10:03;;;;;;;6.33;2.60;;;7.80;99.90;;;;;;8392648;28;20325;-66
2023/05/18 05:14:04;;;;;;;4.37;2.73;;;7.60;99.90;;;;;;8396254;28;20214;-66
2023/05/18 05:18:05;;;;;;;6.90;3.43;;;7.70;99.90;;;;;;8398247;28;20189;-67
2023/05/18 05:22:06;;;;;;;6.73;3.17;;;8.00;99.90;;;;;;8390159;28;20185;-66
2023/05/18 05:26:07;;;;;;;7.10;3.13;;;8.20;99.90;;;;;;8396225;28;20189;-66
2023/05/18 05:30:08;;;;;;;8.77;3.43;;;8.40;99.90;;;;;;8392996;28;20220;-66
2023/05/18 05:34:10;;;;;;;8.37;3.57;;;8.50;99.90;;;;;;8391745;28;20212;-66
2023/05/18 05:38:11;;;;;;;12.83;4.83;;;8.60;99.90;;;;;;8394122;28;20184;-67
2023/05/18 05:42:13;;;;;;;12.70;4.90;;;8.80;99.90;;;;;;8398003;28;20184;-68
2023/05/18 05:46:14;;;;;;;10.90;4.27;;;8.90;99.90;;;;;;8400607;28;20197;-66
2023/05/18 05:50:18;;;;;;;8.33;4.17;;;9.10;98.80;;;;;;8401072;28;20189;-67
2023/05/18 05:54:19;;;;;;;7.87;3.63;;;9.20;62.30;;;;;;8393800;28;20208;-68
2023/05/18 05:58:23;;;;;;;10.43;3.03;;;9.40;47.40;;;;;;8403215;28;20184;-67
2023/05/18 06:02:24;;;;;;;10.17;3.20;;;9.50;22.70;;;;;;8402446;28;20212;-67
2023/05/18 06:06:25;;;;;;;11.57;3.90;;;9.40;25.40;;;;;;8399307;28;20235;-66
2023/05/18 06:10:26;;;;;;;6.17;2.80;;;9.50;5.50;;;;;;8395830;28;20194;-67
2023/05/18 06:14:27;;;;;;;9.23;3.20;;;9.40;1.00;;;;;;8397481;28;20185;-66
2023/05/18 06:18:28;;;;;;;7.97;2.70;;;9.50;1.00;;;;;;8404437;28;20190;-66
2023/05/18 06:22:29;;;;;;;8.10;2.60;;;9.60;1.00;;;;;;8399175;28;20218;-67
2023/05/18 06:26:30;;;;;;;10.53;2.40;;;9.80;1.00;;;;;;8405017;28;20192;-67
2023/05/18 06:30:31;;;;;;;7.67;2.30;;;9.90;1.00;;;;;;8403199;28;20190;-67
2023/05/18 06:34:32;;;;;;;8.50;2.83;;;9.90;1.00;;;;;;8400418;28;20182;-65
2023/05/18 06:38:33;;;;;;;7.30;2.60;;;9.90;1.00;;;;;;8399604;28;20233;-65
2023/05/18 06:42:35;;;;;;;7.80;3.50;;;10.00;1.00;;;;;;8388553;28;20193;-68
2023/05/18 06:46:36;;;;;;;11.37;3.20;;;10.00;1.00;;;;;;8395881;28;20180;-68
2023/05/18 06:50:40;;;;;;;8.60;2.97;;;10.10;1.00;;;;;;8398928;28;20186;-66
2023/05/18 06:54:41;;;;;;;6.90;2.13;;;10.20;1.00;;;;;;8405635;28;20209;-66
2023/05/18 06:58:42;;;;;;;8.20;2.93;;;10.40;1.00;;;;;;8394620;28;20186;-66
2023/05/18 07:02:44;;;;;;;12.40;3.40;;;10.50;1.00;;;;;;8400765;28;20206;-66
2023/05/18 07:06:45;;;;;;;6.70;2.60;;;10.60;1.00;;;;;;8397250;28;20190;-68
2023/05/18 07:10:46;;;;;;;7.43;2.07;;;10.70;1.00;;;;;;8402959;28;20185;-66
2023/05/18 07:14:55;;;;;;;5.83;1.80;;;10.80;1.00;;;;;;8401422;28;20184;-66
2023/05/18 07:18:59;;;;;;;8.00;1.90;;;10.90;1.00;;;;;;8397869;28;20186;-67
2023/05/18 07:23:00;;;;;;;7.13;1.90;;;11.00;1.00;;;;;;8395721;28;20187;-67
2023/05/18 07:27:01;;;;;;;7.27;1.83;;;11.20;1.00;;;;;;8399325;28;20331;-67
2023/05/18 07:31:02;;;;;;;8.73;1.83;;;11.10;1.00;;;;;;8395716;28;20220;-68
2023/05/18 07:35:04;;;;;;;3.90;1.20;;;11.20;1.00;;;;;;8406810;28;20183;-67
2023/05/18 07:39:07;;;;;;;3.17;1.07;;;11.50;1.00;;;;;;8399479;28;20184;-65
2023/05/18 07:43:10;;;;;;;5.30;1.27;;;11.80;1.00;;;;;;8395631;28;20272;-67
2023/05/18 07:47:11;;;;;;;9.27;1.40;;;11.80;1.00;;;;;;8381831;28;20316;-66
2023/05/18 07:51:12;;;;;;;4.93;1.37;;;11.90;1.00;;;;;;8396383;28;20212;-66
2023/05/18 07:55:13;;;;;;;5.47;2.37;;;11.90;1.00;;;;;;8396212;28;20177;-68
2023/05/18 07:59:15;;;;;;;6.00;1.60;;;11.90;1.00;;;;;;8395741;28;20268;-68
2023/05/18 08:03:17;;;;;;;3.90;1.53;;;12.00;1.00;;;;;;8392650;28;20365;-68
2023/05/18 08:07:20;;;;;;;5.57;1.50;;;12.30;1.00;;;;;;8394081;28;20295;-67
2023/05/18 08:11:22;;;;;;;2.30;0.73;;;12.40;1.00;;;;;;8395798;28;20220;-67
2023/05/18 08:15:23;;;;;;;3.00;1.20;;;12.50;1.00;;;;;;8393223;28;20208;-67
2023/05/18 08:19:25;;;;;;;4.13;0.83;;;12.30;1.00;;;;;;8399683;28;20281;-67
2023/05/18 08:23:26;;;;;;;3.57;1.00;;;12.20;1.00;;;;;;8394442;28;20185;-68
2023/05/18 08:27:28;;;;;;;4.30;1.10;;;12.30;1.00;;;;;;8398395;28;20203;-68
2023/05/18 08:31:29;;;;;;;2.17;0.83;;;12.40;1.00;;;;;;8393861;28;20224;-66
2023/05/18 08:35:33;;;;;;;4.10;1.43;;;12.60;1.00;;;;;;8397861;28;20184;-69
2023/05/18 08:39:36;;;;;;;4.20;1.17;;;12.70;1.00;;;;;;8394154;28;20432;-67
2023/05/18 08:43:40;;;;;;;5.83;1.20;;;12.80;1.00;;;;;;8393006;28;20269;-68
2023/05/18 08:47:42;;;;;;;4.17;1.00;;;12.80;1.00;;;;;;8402503;28;20203;-67
2023/05/18 08:51:49;;;;;;;6.33;1.50;;;12.90;1.00;;;;;;8400371;28;20209;-69
2023/05/18 08:55:53;;;;;;;4.00;1.53;;;12.90;1.00;;;;;;8394896;28;20195;-68
2023/05/18 08:59:57;;;;;;;4.60;1.23;;;13.00;1.00;;;;;;8395713;28;20215;-68
2023/05/18 09:04:02;;;;;;;2.30;0.70;;;12.90;1.00;;;;;;8390146;28;20204;-68
2023/05/18 09:08:04;;;;;;;4.57;1.43;;;13.20;1.00;;;;;;8385852;28;20181;-66
2023/05/18 09:12:07;;;;;;;3.50;0.83;;;13.50;1.00;;;;;;8408098;28;20220;-71
2023/05/18 09:16:08;;;;;;;3.43;0.80;;;13.80;1.00;;;;;;8398237;28;20184;-66
2023/05/18 09:20:12;;;;;;;4.20;1.33;;;14.30;1.00;;;;;;8402294;28;20177;-67
2023/05/18 09:24:14;;;;;;;3.17;0.90;;;14.80;1.00;;;;;;8405273;28;20221;-70
2023/05/18 09:28:37;;;;;;;2.73;0.60;;;15.20;1.00;;;;;;8404869;28;20189;-68
2023/05/18 09:32:38;;;;;;;2.73;0.63;;;15.30;1.00;;;;;;8398305;28;20331;-66
2023/05/18 09:36:41;;;;;;;5.33;0.90;;;15.40;1.00;;;;;;8395905;28;20215;-69
2023/05/18 09:40:45;;;;;;;2.73;1.00;;;15.70;1.00;;;;;;8398245;28;20189;-67
2023/05/18 09:44:46;;;;;;;4.47;1.07;;;15.90;1.00;;;;;;8395585;28;20180;-69
2023/05/18 09:48:53;;;;;;;5.07;1.30;;;16.00;1.00;;;;;;8401631;28;20255;-68
2023/05/18 09:52:54;;;;;;;6.33;1.50;;;16.00;1.00;;;;;;8399957;28;20254;-68
2023/05/18 09:56:57;;;;;;;6.27;2.00;;;15.90;1.00;;;;;;8398366;28;20190;-67
2023/05/18 10:01:00;;;;;;;5.13;2.27;;;16.10;1.00;;;;;;8400651;28;20182;-67
2023/05/18 10:05:06;;;;;;;4.17;1.20;;;16.50;1.00;;;;;;8395164;28;20205;-68
2023/05/18 10:09:17;;;;;;;4.67;1.30;;;16.70;1.00;;;;;;8411850;28;20310;-67
2023/05/18 10:13:19;;;;;;;5.43;1.07;;;16.60;1.00;;;;;;8400990;28;20410;-67
2023/05/18 10:17:24;;;;;;;3.10;1.00;;;16.30;1.00;;;;;;8396638;28;20191;-67
2023/05/18 10:21:29;;;;;;;2.90;0.90;;;16.30;1.00;;;;;;8396542;28;20205;-67
2023/05/18 10:25:32;;;;;;;5.40;1.23;;;16.60;1.00;;;;;;8397778;28;20188;-67
2023/05/18 10:29:35;;;;;;;4.30;1.23;;;16.90;1.00;;;;;;8395344;28;20189;-67
2023/05/18 10:33:40;;;;;;;3.40;1.10;;;17.00;1.00;;;;;;8397842;28;20209;-67
2023/05/18 10:37:47;;;;;;;2.73;1.10;;;16.90;1.00;;;;;;8395908;28;20177;-68
2023/05/18 10:41:50;;;;;;;12.40;5.80;;;16.90;1.00;;;;;;8402205;28;20279;-67
2023/05/18 10:45:53;;;;;;;3.87;1.30;;;16.90;1.00;;;;;;8396173;28;20196;-68
2023/05/18 10:49:57;;;;;;;2.57;1.20;;;17.30;1.00;;;;;;8393895;28;20184;-69
2023/05/18 10:54:13;;;;;;;4.30;2.40;;;17.40;1.00;;;;;;8397127;28;20204;-68
2023/05/18 10:58:20;;;;;;;5.03;1.20;;;17.70;1.00;;;;;;8403169;28;20270;-69
2023/05/18 11:02:21;;;;;;;3.63;0.87;;;17.70;1.00;;;;;;8395122;28;20221;-66
2023/05/18 11:06:26;;;;;;;3.53;1.33;;;17.60;1.00;;;;;;8394297;28;20200;-68
2023/05/18 11:10:41;;;;;;;2.80;1.30;;;17.80;1.00;;;;;;8397706;28;20189;-68
2023/05/18 11:14:53;;;;;;;3.70;1.00;;;18.00;1.00;;;;;;8393000;28;20192;-68
2023/05/18 11:19:11;;;;;;;1.90;0.77;;;18.30;1.00;;;;;;8392808;28;20258;-68
2023/05/18 11:23:24;;;;;;;3.73;1.57;;;18.50;1.00;;;;;;8394429;28;20212;-67
2023/05/18 11:27:25;;;;;;;3.40;1.23;;;18.60;1.00;;;;;;8397206;28;20185;-69
2023/05/18 11:31:46;;;;;;;2.97;1.10;;;18.40;1.00;;;;;;8403593;28;20305;-69
2023/05/18 11:36:20;;;;;;;;;;;;;;;;;;;;;
2023/05/18 11:40:45;;;;;;;3.03;1.20;;;17.70;1.00;;;;;;8397211;28;20208;-70
2023/05/18 11:44:54;;;;;;;4.60;0.90;;;18.20;1.00;;;;;;8397027;28;20189;-66
2023/05/18 11:49:03;;;;;;;15.73;6.97;;;18.80;1.00;;;;;;8402065;28;20189;-67
2023/05/18 11:53:05;;;;;;;4.33;1.63;;;19.10;1.00;;;;;;8394733;28;20208;-68
2023/05/18 11:57:14;;;;;;;6.03;0.90;;;19.10;1.00;;;;;;8391642;28;20185;-69
2023/05/18 12:01:15;;;;;;;4.43;0.97;;;19.10;1.00;;;;;;8392747;28;20207;-68
2023/05/18 12:05:16;;;;;;;7.13;2.40;;;19.30;1.00;;;;;;8395226;28;20204;-69
2023/05/18 12:09:18;;;;;;;2.23;0.90;;;19.10;1.00;;;;;;8396654;28;20195;-67
2023/05/18 12:13:23;;;;;;;2.23;1.33;;;18.90;1.00;;;;;;8392642;28;20303;-68
2023/05/18 12:17:44;;;;;;;4.97;2.60;;;18.50;1.00;;;;;;8392038;28;20248;-69
2023/05/18 12:21:45;;;;;;;2.80;1.00;;;18.40;1.00;;;;;;8393761;28;20266;-68
2023/05/18 12:25:47;;;;;;;6.83;3.97;;;18.80;1.00;;;;;;8395930;28;20192;-69
2023/05/18 12:29:54;;;;;;;4.70;1.03;;;19.10;1.00;;;;;;8396877;28;20192;-69
2023/05/18 12:33:56;;;;;;;2.33;1.50;;;19.50;1.00;;;;;;8393404;28;20213;-69
2023/05/18 12:38:00;;;;;;;3.93;1.37;;;19.50;1.00;;;;;;8400729;28;20181;-68
2023/05/18 12:42:15;;;;;;;4.60;1.37;;;18.80;1.00;;;;;;8401918;28;20193;-68
2023/05/18 12:46:16;;;;;;;2.50;0.83;;;18.60;1.00;;;;;;8395142;28;20207;-69
2023/05/18 12:50:21;;;;;;;4.70;0.90;;;18.90;1.00;;;;;;8406877;28;20320;-68
2023/05/18 12:54:28;;;;;;;2.80;0.80;;;19.30;1.00;;;;;;8408933;28;20200;-68
2023/05/18 12:58:31;;;;;;;3.77;1.10;;;19.60;1.00;;;;;;8401731;28;20256;-71
2023/05/18 13:02:34;;;;;;;2.83;1.03;;;19.30;1.00;;;;;;8474610;22;20223;-67
2023/05/18 13:06:38;;;;;;;3.60;1.10;;;19.10;1.00;;;;;;8372501;28;20193;-70
2023/05/18 13:10:43;;;;;;;2.93;0.80;;;19.10;1.00;;;;;;8372979;28;20189;-67
2023/05/18 13:14:44;;;;;;;5.30;1.10;;;18.90;1.00;;;;;;8372891;28;20214;-68
2023/05/18 13:18:54;;;;;;;4.10;1.17;;;18.90;1.00;;;;;;8370880;28;20276;-67
2023/05/18 13:22:58;;;;;;;3.83;0.90;;;19.00;1.00;;;;;;8376693;28;20190;-67
2023/05/18 13:27:02;;;;;;;4.67;0.73;;;19.00;1.00;;;;;;8370250;28;20193;-67
2023/05/18 13:31:05;;;;;;;2.53;0.83;;;18.90;1.00;;;;;;8372845;28;20194;-67
2023/05/18 13:35:11;;;;;;;9.60;1.30;;;18.60;1.00;;;;;;8372916;28;20186;-69
2023/05/18 13:39:14;;;;;;;3.27;0.87;;;18.40;1.00;;;;;;8377354;28;20235;-68
2023/05/18 13:43:15;;;;;;;3.37;1.10;;;18.40;1.00;;;;;;8357833;28;20198;-69
2023/05/18 13:47:16;;;;;;;1.67;0.83;;;18.20;1.00;;;;;;8369122;28;20193;-68
2023/05/18 13:51:21;;;;;;;4.50;1.30;;;18.00;1.00;;;;;;8372302;28;20291;-66
2023/05/18 13:55:22;;;;;;;2.77;1.00;;;17.80;1.00;;;;;;8365038;28;20192;-67
2023/05/18 13:59:23;;;;;;;1.97;0.60;;;17.40;1.00;;;;;;8374840;28;20177;-69
2023/05/18 14:03:24;;;;;;;3.33;0.80;;;17.50;1.00;;;;;;8364957;28;20218;-65
2023/05/18 14:07:28;;;;;;;2.37;0.97;;;17.70;1.00;;;;;;8351308;28;20189;-67
2023/05/18 14:11:33;;;;;;;1.93;0.80;;;17.90;1.00;;;;;;8351526;28;20201;-69
2023/05/18 14:15:34;;;;;;;2.33;0.90;;;18.00;1.00;;;;;;8349422;28;20186;-68
2023/05/18 14:19:35;;;;;;;1.77;0.83;;;18.00;1.00;;;;;;8351865;28;20189;-70
2023/05/18 14:23:36;;;;;;;3.03;0.90;;;17.70;1.00;;;;;;8353708;28;20198;-70
2023/05/18 14:27:40;;;;;;;2.57;1.13;;;17.60;1.00;;;;;;8351737;28;20199;-67
2023/05/18 14:31:44;;;;;;;3.37;0.90;;;17.50;1.00;;;;;;8361930;28;20213;-66
2023/05/18 14:35:45;;;;;;;2.70;0.90;;;17.70;1.00;;;;;;8350149;28;20188;-66
2023/05/18 14:39:46;;;;;;;3.27;1.17;;;18.00;1.00;;;;;;8352001;28;20198;-69
2023/05/18 14:43:49;;;;;;;4.10;1.00;;;18.30;1.00;;;;;;8348622;28;20193;-70
2023/05/18 14:47:53;;;;;;;2.07;1.03;;;18.60;1.00;;;;;;8344237;28;20189;-68
2023/05/18 14:51:54;;;;;;;3.53;0.90;;;18.50;1.00;;;;;;8348383;28;20206;-67
2023/05/18 14:55:55;;;;;;;3.83;0.87;;;18.40;1.00;;;;;;8352272;28;20264;-67
2023/05/18 15:00:03;;;;;;;1.63;1.00;;;18.40;1.00;;;;;;8351046;28;20190;-68
2023/05/18 15:04:07;;;;;;;2.43;0.80;;;18.40;1.00;;;;;;8365794;28;20210;-69
2023/05/18 15:08:24;;;;;;;2.33;0.80;;;18.40;1.00;;;;;;8337048;28;20182;-70
2023/05/18 15:12:25;;;;;;;5.10;1.13;;;18.40;1.00;;;;;;8345458;28;20362;-68
2023/05/18 15:16:42;;;;;;;4.37;1.00;;;18.40;1.00;;;;;;8340844;28;20193;-69
2023/05/18 15:21:03;;;;;;;2.67;0.80;;;18.40;1.00;;;;;;8351088;28;20190;-69
2023/05/18 15:25:08;;;;;;;2.03;1.00;;;18.40;1.00;;;;;;8341858;28;20208;-69
2023/05/18 15:29:18;;;;;;;3.23;0.97;;;18.40;1.00;;;;;;8336891;28;20276;-69
2023/05/18 15:33:41;;;;;;;;;;;;;;;;;;;;;
2023/05/18 15:38:16;;;;;;;;;;;;;;;;;;;;;
2023/05/18 15:42:20;;;;;;;44.07;22.67;;;18.10;1.00;;;;;;8343302;28;20198;-70
2023/05/18 15:46:39;;;;;;;2.20;1.43;;;18.00;1.00;;;;;;8348914;28;20213;-70
2023/05/18 15:50:40;;;;;;;3.43;1.20;;;17.80;1.00;;;;;;8344479;28;20204;-70
2023/05/18 15:54:48;;;;;;;3.33;0.90;;;17.70;1.00;;;;;;8354416;28;20298;-70
2023/05/18 15:58:49;;;;;;;2.60;0.97;;;17.80;1.00;;;;;;8342972;28;20323;-69
2023/05/18 16:02:50;;;;;;;3.73;1.83;;;17.80;1.00;;;;;;8352043;28;20479;-69
2023/05/18 16:06:50;;;;;;;4.73;1.90;;;17.70;1.00;;;;;;8345935;28;20194;-67
2023/05/18 16:10:51;;;;;;;2.47;1.10;;;17.60;1.00;;;;;;8346931;28;20174;-66
2023/05/18 16:14:52;;;;;;;2.80;1.50;;;17.60;1.00;;;;;;8350141;28;20201;-68
2023/05/18 16:18:54;;;;;;;2.97;1.30;;;17.40;1.00;;;;;;8347072;28;20279;-67
2023/05/18 16:22:55;;;;;;;5.53;2.23;;;17.20;1.00;;;;;;8338278;28;20193;-69
2023/05/18 16:26:56;;;;;;;9.97;4.73;;;17.00;1.00;;;;;;8349318;28;20276;-68
2023/05/18 16:31:03;;;;;;;8.70;5.83;;;17.00;1.00;;;;;;8351327;28;20193;-68
2023/05/18 16:35:10;;;;;;;3.33;2.23;;;16.80;1.00;;;;;;8342714;28;20212;-68
2023/05/18 16:39:11;;;;;;;4.17;2.03;;;16.50;1.00;;;;;;8348913;28;20212;-68
2023/05/18 16:43:12;;;;;;;3.47;1.87;;;16.30;1.00;;;;;;8356633;28;20197;-69
2023/05/18 16:47:13;;;;;;;6.33;1.73;;;16.00;1.00;;;;;;8346006;28;20189;-68
2023/05/18 16:51:14;;;;;;;4.93;1.87;;;15.70;1.00;;;;;;8345027;28;22161;-69
2023/05/18 16:55:15;;;;;;;3.00;1.13;;;15.60;1.00;;;;;;8344992;28;20200;-69
2023/05/18 16:59:16;;;;;;;2.00;0.83;;;15.50;1.00;;;;;;8340174;28;20204;-68
2023/05/18 17:03:20;;;;;;;2.73;0.90;;;15.40;1.00;;;;;;8353192;28;20225;-69
2023/05/18 17:07:22;;;;;;;3.53;1.17;;;15.50;1.00;;;;;;8348281;28;20198;-68
2023/05/18 17:12:07;;;;;;;3.23;1.10;;;15.40;1.00;;;;;;8348306;28;20241;-68
2023/05/18 17:16:12;;;;;;;3.63;0.97;;;15.40;1.00;;;;;;8337313;28;20198;-68
2023/05/18 17:20:16;;;;;;;1.23;0.87;;;15.40;1.00;;;;;;8358681;28;20347;-68
2023/05/18 17:24:17;;;;;;;3.90;1.03;;;16.00;1.00;;;;;;8347538;28;20197;-69
2023/05/18 17:28:18;;;;;;;2.53;1.40;;;17.10;1.00;;;;;;8349780;28;20194;-68
2023/05/18 17:32:28;;;;;;;3.70;2.03;;;18.20;1.00;;;;;;8349040;28;20210;-69
2023/05/18 17:36:35;;;;;;;2.17;1.30;;;19.00;1.00;;;;;;8349273;28;20202;-69
2023/05/18 17:40:51;;;;;;;2.27;1.10;;;19.70;1.00;;;;;;8351353;28;20187;-69
2023/05/18 17:44:55;;;;;;;3.13;2.03;;;19.90;1.00;;;;;;8351934;28;20193;-68
2023/05/18 17:48:59;;;;;;;9.80;8.77;;;20.20;1.00;;;;;;8352760;28;20189;-67
2023/05/18 17:53:00;;;;;;;3.90;2.20;;;20.40;1.00;;;;;;8352070;28;20216;-69
2023/05/18 17:57:07;;;;;;;4.20;2.10;;;20.30;1.00;;;;;;8358479;28;20182;-69
2023/05/18 18:01:10;;;;;;;2.63;2.00;;;20.10;1.00;;;;;;8351670;28;20186;-70
2023/05/18 18:05:15;;;;;;;5.00;3.13;;;19.80;1.00;;;;;;8350740;28;20225;-69
2023/05/18 18:09:19;;;;;;;3.27;1.30;;;19.60;1.00;;;;;;8352120;28;20206;-67
2023/05/18 18:13:20;;;;;;;2.63;1.60;;;19.40;1.00;;;;;;8356814;28;20221;-68
2023/05/18 18:17:23;;;;;;;3.83;2.17;;;19.20;1.00;;;;;;8344986;28;20221;-68
2023/05/18 18:21:24;;;;;;;2.87;1.63;;;18.70;1.00;;;;;;8349304;28;20260;-69
2023/05/18 18:25:25;;;;;;;3.47;2.33;;;17.90;1.00;;;;;;8353492;28;20285;-69
2023/05/18 18:29:29;;;;;;;3.93;2.30;;;17.20;1.00;;;;;;8353216;28;20206;-69
2023/05/18 18:33:31;;;;;;;3.73;3.00;;;16.90;1.00;;;;;;8343434;28;20210;-69
2023/05/18 18:37:35;;;;;;;4.27;2.70;;;16.30;1.00;;;;;;8352823;28;20195;-66
2023/05/18 18:41:45;;;;;;;5.83;2.70;;;15.60;1.00;;;;;;8355633;28;20197;-69
2023/05/18 18:45:46;;;;;;;7.17;3.00;;;14.90;1.00;;;;;;8352080;28;20388;-69
2023/05/18 18:49:48;;;;;;;4.67;3.30;;;14.40;1.00;;;;;;8350325;28;20189;-70
2023/05/18 18:53:49;;;;;;;3.87;2.47;;;14.00;1.00;;;;;;8350347;28;20230;-70
2023/05/18 18:57:51;;;;;;;7.13;4.50;;;13.60;1.00;;;;;;8354570;28;20245;-70
2023/05/18 19:01:52;;;;;;;3.87;2.70;;;13.30;1.00;;;;;;8358508;28;20197;-70
2023/05/18 19:05:53;;;;;;;6.33;3.50;;;13.00;1.00;;;;;;8350589;28;20193;-71
2023/05/18 19:09:55;;;;;;;4.83;3.73;;;12.70;1.00;;;;;;8354850;28;20209;-69
2023/05/18 19:13:57;;;;;;;4.73;3.83;;;12.40;1.00;;;;;;8352236;28;20237;-68
2023/05/18 19:17:58;;;;;;;5.43;3.73;;;12.20;1.00;;;;;;8351317;28;20247;-67
2023/05/18 19:21:59;;;;;;;4.10;3.40;;;11.90;1.00;;;;;;8350333;28;20200;-68
2023/05/18 19:26:01;;;;;;;4.83;3.13;;;11.50;1.00;;;;;;8347957;28;20190;-69
2023/05/18 19:30:04;;;;;;;5.20;2.90;;;11.20;1.00;;;;;;8353024;28;20218;-67
2023/05/18 19:34:05;;;;;;;3.77;2.53;;;10.90;1.00;;;;;;8331845;28;20221;-71
2023/05/18 19:38:06;;;;;;;4.37;2.43;;;10.60;1.00;;;;;;8346320;28;20186;-67
2023/05/18 19:42:07;;;;;;;4.20;2.37;;;10.30;1.00;;;;;;8342304;28;20203;-67
2023/05/18 19:46:07;;;;;;;2.70;1.87;;;10.00;1.00;;;;;;8363176;28;20206;-68
2023/05/18 19:50:09;;;;;;;2.63;1.60;;;9.80;1.00;;;;;;8353199;28;20213;-67
2023/05/18 19:54:10;;;;;;;2.97;2.03;;;9.60;1.00;;;;;;8343853;28;20304;-67
2023/05/18 19:58:11;;;;;;;3.10;2.03;;;9.40;14.70;;;;;;8354842;28;20174;-69
2023/05/18 20:02:12;;;;;;;5.73;2.03;;;9.20;31.80;;;;;;8344712;28;20217;-68
2023/05/18 20:06:13;;;;;;;3.40;2.37;;;9.00;51.40;;;;;;8350943;28;20193;-68
2023/05/18 20:10:14;;;;;;;3.70;2.30;;;8.90;77.30;;;;;;8342152;28;20199;-67
2023/05/18 20:14:18;;;;;;;3.53;2.20;;;8.70;99.90;;;;;;8345146;28;20239;-68
2023/05/18 20:18:20;;;;;;;2.07;1.70;;;8.60;99.90;;;;;;8330483;28;20193;-68
2023/05/18 20:22:21;;;;;;;2.73;1.80;;;8.50;99.90;;;;;;8352126;28;20200;-68
2023/05/18 20:26:23;;;;;;;2.63;2.00;;;8.40;99.90;;;;;;8345319;28;20189;-68
2023/05/18 20:30:24;;;;;;;3.43;2.00;;;8.30;99.90;;;;;;8347059;28;20193;-68
2023/05/18 20:34:25;;;;;;;4.13;1.70;;;8.20;99.90;;;;;;8350126;28;20247;-68
2023/05/18 20:38:27;;;;;;;2.60;2.07;;;8.10;99.90;;;;;;8348310;28;20276;-68
2023/05/18 20:42:37;;;;;;;3.00;2.33;;;8.00;99.90;;;;;;8346697;28;20190;-69
2023/05/18 20:46:48;;;;;;;6.83;2.40;;;7.90;99.90;;;;;;8349171;28;20194;-68
2023/05/18 20:50:51;;;;;;;2.40;1.90;;;7.90;99.90;;;;;;8351861;28;20189;-70
2023/05/18 20:54:52;;;;;;;4.30;1.93;;;7.80;99.90;;;;;;8321108;28;20236;-69
2023/05/18 20:58:58;;;;;;;4.07;2.47;;;7.70;99.90;;;;;;8348871;28;20197;-69
2023/05/18 21:03:02;;;;;;;2.63;1.97;;;7.70;99.90;;;;;;8334515;28;20208;-69
2023/05/18 21:07:08;;;;;;;3.23;2.17;;;7.60;99.90;;;;;;8347102;28;20201;-70
2023/05/18 21:11:10;;;;;;;2.60;2.13;;;7.50;99.90;;;;;;8351132;28;20331;-68
2023/05/18 21:15:11;;;;;;;3.27;2.13;;;7.40;99.90;;;;;;8356498;28;20213;-68
2023/05/18 21:19:12;;;;;;;2.57;2.13;;;7.40;99.90;;;;;;8352982;28;20321;-68
2023/05/18 21:23:13;;;;;;;3.57;2.03;;;7.30;1.00;;;;;;8353818;28;20280;-68
2023/05/18 21:27:14;;;;;;;2.60;2.13;;;7.20;1.00;;;;;;8348677;28;20321;-69
2023/05/18 21:31:18;;;;;;;3.33;2.07;;;7.20;1.00;;;;;;8350659;28;20194;-66